sensor_id;sensor_type;location;lat;lon;timestamp;pressure;altitude;pressure_sealevel;temperature;humidity
69247;BME280;56358;56.328;43.992;2023-02-19T00:00:17;99877.63;;;-9.58;70.11
69247;BME280;56358;56.328;43.992;2023-02-19T00:02:18;99878.53;;;-9.62;69.63
69247;BME280;56358;56.328;43.992;2023-02-19T00:04:20;99869.00;;;-9.57;70.01
69247;BME280;56358;56.328;43.992;2023-02-19T00:06:25;99875.94;;;-9.57;69.94
69247;BME280;56358;56.328;43.992;2023-02-19T00:08:26;99861.22;;;-9.63;70.04
69247;BME280;56358;56.328;43.992;2023-02-19T00:10:26;99868.97;;;-9.51;69.84
69247;BME280;56358;56.328;43.992;2023-02-19T00:12:27;99863.75;;;-9.49;69.91
69247;BME280;56358;56.328;43.992;2023-02-19T00:14:28;99837.06;;;-9.71;69.44
69247;BME280;56358;56.328;43.992;2023-02-19T00:16:37;99869.81;;;-9.50;69.96
69247;BME280;56358;56.328;43.992;2023-02-19T00:18:38;99865.47;;;-9.50;69.61
69247;BME280;56358;56.328;43.992;2023-02-19T00:20:38;99866.31;;;-9.43;69.32
69247;BME280;56358;56.328;43.992;2023-02-19T00:22:39;99862.81;;;-9.39;69.49
69247;BME280;56358;56.328;43.992;2023-02-19T00:24:39;99861.06;;;-9.34;69.36
69247;BME280;56358;56.328;43.992;2023-02-19T00:26:41;99815.38;;;-9.60;69.03
69247;BME280;56358;56.328;43.992;2023-02-19T00:28:42;99836.03;;;-9.43;69.07
69247;BME280;56358;56.328;43.992;2023-02-19T00:30:43;99859.41;;;-9.44;68.77
69247;BME280;56358;56.328;43.992;2023-02-19T00:32:49;99852.53;;;-9.48;69.29
69247;BME280;56358;56.328;43.992;2023-02-19T00:34:50;99846.47;;;-9.56;69.28
69247;BME280;56358;56.328;43.992;2023-02-19T00:36:51;99846.47;;;-9.50;69.51
69247;BME280;56358;56.328;43.992;2023-02-19T00:38:51;99858.63;;;-9.57;69.25
69247;BME280;56358;56.328;43.992;2023-02-19T00:40:52;99836.97;;;-9.59;69.24
69247;BME280;56358;56.328;43.992;2023-02-19T00:42:53;99858.59;;;-9.55;69.32
69247;BME280;56358;56.328;43.992;2023-02-19T00:44:53;99846.53;;;-9.66;69.19
69247;BME280;56358;56.328;43.992;2023-02-19T00:46:54;99847.44;;;-9.70;68.96
69247;BME280;56358;56.328;43.992;2023-02-19T00:48:56;99843.13;;;-9.71;69.17
69247;BME280;56358;56.328;43.992;2023-02-19T00:50:57;99848.34;;;-9.77;69.92
69247;BME280;56358;56.328;43.992;2023-02-19T00:52:57;99833.69;;;-9.84;69.94
69247;BME280;56358;56.328;43.992;2023-02-19T00:54:58;99834.53;;;-9.78;69.90
69247;BME280;56358;56.328;43.992;2023-02-19T00:56:58;99834.50;;;-9.76;69.61
69247;BME280;56358;56.328;43.992;2023-02-19T00:58:59;99822.44;;;-9.85;69.82
69247;BME280;56358;56.328;43.992;2023-02-19T01:01:00;99834.56;;;-9.87;69.84
69247;BME280;56358;56.328;43.992;2023-02-19T01:03:01;99832.84;;;-9.89;69.65
69247;BME280;56358;56.328;43.992;2023-02-19T01:05:01;99822.44;;;-9.85;70.04
69247;BME280;56358;56.328;43.992;2023-02-19T01:07:04;99815.59;;;-9.95;69.88
69247;BME280;56358;56.328;43.992;2023-02-19T01:09:05;99819.03;;;-9.93;69.87
69247;BME280;56358;56.328;43.992;2023-02-19T01:11:07;99832.81;;;-9.86;69.99
69247;BME280;56358;56.328;43.992;2023-02-19T01:13:09;99789.69;;;-10.06;69.83
69247;BME280;56358;56.328;43.992;2023-02-19T01:15:10;99818.13;;;-9.87;69.94
69247;BME280;56358;56.328;43.992;2023-02-19T01:17:10;99819.81;;;-9.83;69.65
69247;BME280;56358;56.328;43.992;2023-02-19T01:19:11;99822.44;;;-9.80;70.00
69247;BME280;56358;56.328;43.992;2023-02-19T01:21:14;99824.16;;;-9.82;69.88
69247;BME280;56358;56.328;43.992;2023-02-19T01:23:15;99812.94;;;-9.84;69.87
69247;BME280;56358;56.328;43.992;2023-02-19T01:25:16;99812.06;;;-9.82;70.14
69247;BME280;56358;56.328;43.992;2023-02-19T01:27:17;99761.16;;;-10.03;69.84
69247;BME280;56358;56.328;43.992;2023-02-19T01:29:17;99805.13;;;-9.80;69.94
69247;BME280;56358;56.328;43.992;2023-02-19T01:31:21;99808.56;;;-9.81;70.05
69247;BME280;56358;56.328;43.992;2023-02-19T01:33:22;99797.38;;;-9.89;70.43
69247;BME280;56358;56.328;43.992;2023-02-19T01:35:23;99814.69;;;-9.89;70.48
69247;BME280;56358;56.328;43.992;2023-02-19T01:37:23;99746.56;;;-10.22;70.18
69247;BME280;56358;56.328;43.992;2023-02-19T01:39:24;99787.91;;;-9.99;70.00
69247;BME280;56358;56.328;43.992;2023-02-19T01:41:25;99710.47;;;-10.52;70.34
69247;BME280;56358;56.328;43.992;2023-02-19T01:43:26;99766.41;;;-10.18;70.32
69247;BME280;56358;56.328;43.992;2023-02-19T01:45:30;99781.94;;;-10.11;70.36
69247;BME280;56358;56.328;43.992;2023-02-19T01:47:31;99786.28;;;-10.11;70.20
69247;BME280;56358;56.328;43.992;2023-02-19T01:49:36;99781.91;;;-10.06;70.20
69247;BME280;56358;56.328;43.992;2023-02-19T01:51:45;99788.84;;;-10.13;70.29
69247;BME280;56358;56.328;43.992;2023-02-19T01:53:52;99758.66;;;-10.21;70.45
69247;BME280;56358;56.328;43.992;2023-02-19T01:55:56;99775.91;;;-10.09;70.33
69247;BME280;56358;56.328;43.992;2023-02-19T01:57:59;99740.56;;;-10.29;70.17
69247;BME280;56358;56.328;43.992;2023-02-19T02:00:09;99772.41;;;-10.05;69.85
69247;BME280;56358;56.328;43.992;2023-02-19T02:02:11;99764.66;;;-10.10;70.16
69247;BME280;56358;56.328;43.992;2023-02-19T02:04:13;99755.09;;;-10.03;69.87
69247;BME280;56358;56.328;43.992;2023-02-19T02:06:22;99767.19;;;-9.98;69.92
69247;BME280;56358;56.328;43.992;2023-02-19T02:08:25;99774.91;;;-9.91;69.68
69247;BME280;56358;56.328;43.992;2023-02-19T02:10:45;99772.38;;;-10.02;69.40
69247;BME280;56358;56.328;43.992;2023-02-19T02:12:46;99775.91;;;-10.09;69.41
69247;BME280;56358;56.328;43.992;2023-02-19T02:14:47;99769.81;;;-10.05;69.80
69247;BME280;56358;56.328;43.992;2023-02-19T02:26:54;99762.13;;;-10.24;69.36
69247;BME280;56358;56.328;43.992;2023-02-19T02:31:22;99767.41;;;-10.39;69.60
69247;BME280;56358;56.328;43.992;2023-02-19T02:33:35;99785.53;;;-10.35;69.73
69247;BME280;56358;56.328;43.992;2023-02-19T02:35:47;99783.75;;;-10.33;69.64
69247;BME280;56358;56.328;43.992;2023-02-19T02:37:50;99739.84;;;-10.57;69.44
69247;BME280;56358;56.328;43.992;2023-02-19T02:39:53;99751.91;;;-10.52;69.44
69247;BME280;56358;56.328;43.992;2023-02-19T02:41:58;99762.28;;;-10.47;69.78
69247;BME280;56358;56.328;43.992;2023-02-19T02:44:17;99764.88;;;-10.55;69.76
69247;BME280;56358;56.328;43.992;2023-02-19T02:46:22;99777.84;;;-10.53;70.06
69247;BME280;56358;56.328;43.992;2023-02-19T02:48:40;99771.78;;;-10.52;69.90
69247;BME280;56358;56.328;43.992;2023-02-19T02:50:49;99767.50;;;-10.56;69.68
69247;BME280;56358;56.328;43.992;2023-02-19T02:52:55;99751.13;;;-10.72;69.38
69247;BME280;56358;56.328;43.992;2023-02-19T02:55:17;99752.91;;;-10.91;69.50
69247;BME280;56358;56.328;43.992;2023-02-19T02:57:18;99767.53;;;-10.81;69.81
69247;BME280;56358;56.328;43.992;2023-02-19T02:59:24;99765.84;;;-10.93;69.49
69247;BME280;56358;56.328;43.992;2023-02-19T03:01:30;99775.31;;;-10.90;69.92
69247;BME280;56358;56.328;43.992;2023-02-19T03:03:55;99770.16;;;-10.93;69.95
69247;BME280;56358;56.328;43.992;2023-02-19T03:06:03;99766.72;;;-10.92;69.92
69247;BME280;56358;56.328;43.992;2023-02-19T03:10:15;99768.44;;;-10.96;70.09
69247;BME280;56358;56.328;43.992;2023-02-19T03:12:18;99774.47;;;-10.97;70.15
69247;BME280;56358;56.328;43.992;2023-02-19T03:14:42;99740.03;;;-11.21;70.01
69247;BME280;56358;56.328;43.992;2023-02-19T03:17:09;99772.78;;;-10.97;70.16
69247;BME280;56358;56.328;43.992;2023-02-19T03:19:35;99766.72;;;-10.97;70.12
69247;BME280;56358;56.328;43.992;2023-02-19T03:21:40;99763.28;;;-11.01;69.93
69247;BME280;56358;56.328;43.992;2023-02-19T03:23:44;99772.75;;;-11.00;69.93
69247;BME280;56358;56.328;43.992;2023-02-19T03:26:03;99766.72;;;-10.92;69.98
69247;BME280;56358;56.328;43.992;2023-02-19T03:28:07;99758.94;;;-10.99;69.68
69247;BME280;56358;56.328;43.992;2023-02-19T03:30:14;99712.38;;;-11.16;70.02
69247;BME280;56358;56.328;43.992;2023-02-19T03:34:56;99747.72;;;-10.95;69.78
69247;BME280;56358;56.328;43.992;2023-02-19T03:37:13;99751.16;;;-10.83;69.92
69247;BME280;56358;56.328;43.992;2023-02-19T03:39:16;99759.78;;;-10.81;69.73
69247;BME280;56358;56.328;43.992;2023-02-19T03:44:11;99752.88;;;-10.87;69.94
69247;BME280;56358;56.328;43.992;2023-02-19T03:46:20;99754.59;;;-10.83;69.83
69247;BME280;56358;56.328;43.992;2023-02-19T03:48:35;99666.72;;;-11.38;70.08
69247;BME280;56358;56.328;43.992;2023-02-19T03:51:00;99758.94;;;-10.89;70.15
69247;BME280;56358;56.328;43.992;2023-02-19T03:55:17;99633.13;;;-11.60;70.21
69247;BME280;56358;56.328;43.992;2023-02-19T03:57:48;99737.38;;;-10.98;69.90
69247;BME280;56358;56.328;43.992;2023-02-19T04:00:29;99746.88;;;-10.98;69.71
69247;BME280;56358;56.328;43.992;2023-02-19T04:02:49;99759.81;;;-11.03;69.74
69247;BME280;56358;56.328;43.992;2023-02-19T04:05:18;99748.63;;;-11.05;69.60
69247;BME280;56358;56.328;43.992;2023-02-19T04:07:18;99756.38;;;-11.17;69.75
69247;BME280;56358;56.328;43.992;2023-02-19T04:09:20;99756.38;;;-11.16;69.67
69247;BME280;56358;56.328;43.992;2023-02-19T04:11:22;99755.53;;;-11.18;69.74
69247;BME280;56358;56.328;43.992;2023-02-19T04:13:29;99760.69;;;-11.22;69.47
69247;BME280;56358;56.328;43.992;2023-02-19T04:15:33;99755.53;;;-11.22;69.70
69247;BME280;56358;56.328;43.992;2023-02-19T04:17:37;99752.97;;;-11.29;69.77
69247;BME280;56358;56.328;43.992;2023-02-19T04:19:41;99747.78;;;-11.33;69.82
69247;BME280;56358;56.328;43.992;2023-02-19T04:21:43;99747.81;;;-11.41;69.80
69247;BME280;56358;56.328;43.992;2023-02-19T04:23:45;99744.34;;;-11.43;70.18
69247;BME280;56358;56.328;43.992;2023-02-19T04:25:49;99743.47;;;-11.36;69.60
69247;BME280;56358;56.328;43.992;2023-02-19T04:27:51;99744.31;;;-11.40;69.38
69247;BME280;56358;56.328;43.992;2023-02-19T04:29:52;99723.63;;;-11.49;69.44
69247;BME280;56358;56.328;43.992;2023-02-19T04:31:52;99714.16;;;-11.56;69.12
69247;BME280;56358;56.328;43.992;2023-02-19T04:33:53;99753.84;;;-11.45;69.17
69247;BME280;56358;56.328;43.992;2023-02-19T04:35:54;99744.34;;;-11.48;69.38
69247;BME280;56358;56.328;43.992;2023-02-19T04:37:54;99605.59;;;-12.35;69.25
69247;BME280;56358;56.328;43.992;2023-02-19T04:39:55;99744.34;;;-11.58;69.29
69247;BME280;56358;56.328;43.992;2023-02-19T04:41:56;99712.44;;;-11.79;69.38
69247;BME280;56358;56.328;43.992;2023-02-19T04:43:56;99723.63;;;-11.69;69.23
69247;BME280;56358;56.328;43.992;2023-02-19T04:46:00;99735.72;;;-11.65;69.19
69247;BME280;56358;56.328;43.992;2023-02-19T04:48:01;99734.84;;;-11.66;69.22
69247;BME280;56358;56.328;43.992;2023-02-19T04:50:02;99740.03;;;-11.70;69.36
69247;BME280;56358;56.328;43.992;2023-02-19T04:52:04;99683.16;;;-12.09;69.60
69247;BME280;56358;56.328;43.992;2023-02-19T04:54:05;99723.66;;;-11.74;69.82
69247;BME280;56358;56.328;43.992;2023-02-19T04:56:09;99735.72;;;-11.74;69.66
69247;BME280;56358;56.328;43.992;2023-02-19T04:58:10;99719.31;;;-11.73;70.06
69247;BME280;56358;56.328;43.992;2023-02-19T05:00:11;99722.78;;;-11.70;70.16
69247;BME280;56358;56.328;43.992;2023-02-19T05:02:12;99658.16;;;-12.01;69.94
69247;BME280;56358;56.328;43.992;2023-02-19T05:04:13;99725.34;;;-11.56;70.05
69247;BME280;56358;56.328;43.992;2023-02-19T05:06:13;99713.31;;;-11.54;69.85
69247;BME280;56358;56.328;43.992;2023-02-19T05:08:14;99716.75;;;-11.49;70.10
69247;BME280;56358;56.328;43.992;2023-02-19T05:10:15;99724.50;;;-11.39;69.76
69247;BME280;56358;56.328;43.992;2023-02-19T05:12:15;99723.66;;;-11.38;69.81
69247;BME280;56358;56.328;43.992;2023-02-19T05:14:16;99720.19;;;-11.39;69.63
69247;BME280;56358;56.328;43.992;2023-02-19T05:16:17;99678.81;;;-11.68;69.75
69247;BME280;56358;56.328;43.992;2023-02-19T05:18:18;99721.06;;;-11.38;69.63
69247;BME280;56358;56.328;43.992;2023-02-19T05:20:18;99715.88;;;-11.49;69.93
69247;BME280;56358;56.328;43.992;2023-02-19T05:22:19;99717.59;;;-11.48;69.73
69247;BME280;56358;56.328;43.992;2023-02-19T05:24:20;99703.81;;;-11.55;69.83
69247;BME280;56358;56.328;43.992;2023-02-19T05:26:21;99720.22;;;-11.43;69.85
69247;BME280;56358;56.328;43.992;2023-02-19T05:28:23;99729.66;;;-11.44;70.11
69247;BME280;56358;56.328;43.992;2023-02-19T05:30:28;99726.22;;;-11.44;70.20
69247;BME280;56358;56.328;43.992;2023-02-19T05:32:28;99734.84;;;-11.42;70.46
69247;BME280;56358;56.328;43.992;2023-02-19T05:34:29;99711.59;;;-11.41;70.19
69247;BME280;56358;56.328;43.992;2023-02-19T05:36:30;99734.84;;;-11.29;70.45
69247;BME280;56358;56.328;43.992;2023-02-19T05:38:31;99728.78;;;-11.20;70.29
69247;BME280;56358;56.328;43.992;2023-02-19T05:40:31;99735.69;;;-11.11;70.06
69247;BME280;56358;56.328;43.992;2023-02-19T05:42:33;99686.56;;;-11.34;69.82
69247;BME280;56358;56.328;43.992;2023-02-19T05:44:34;99721.84;;;-11.04;70.11
69247;BME280;56358;56.328;43.992;2023-02-19T05:46:34;99720.13;;;-10.99;69.86
69247;BME280;56358;56.328;43.992;2023-02-19T05:48:35;99726.13;;;-10.90;70.08
69247;BME280;56358;56.328;43.992;2023-02-19T05:50:36;99723.53;;;-10.89;69.63
69247;BME280;56358;56.328;43.992;2023-02-19T05:52:37;99714.06;;;-10.88;69.55
69247;BME280;56358;56.328;43.992;2023-02-19T05:54:38;99715.75;;;-10.76;69.80
69247;BME280;56358;56.328;43.992;2023-02-19T05:56:39;99686.44;;;-10.91;69.51
69247;BME280;56358;56.328;43.992;2023-02-19T05:58:40;99713.97;;;-10.65;69.37
69247;BME280;56358;56.328;43.992;2023-02-19T06:00:41;99714.81;;;-10.62;69.15
69247;BME280;56358;56.328;43.992;2023-02-19T06:02:42;99722.59;;;-10.55;68.80
69247;BME280;56358;56.328;43.992;2023-02-19T06:04:43;99723.44;;;-10.55;69.11
69247;BME280;56358;56.328;43.992;2023-02-19T06:06:44;99715.66;;;-10.55;68.79
69247;BME280;56358;56.328;43.992;2023-02-19T06:08:45;99662.28;;;-10.93;68.53
69247;BME280;56358;56.328;43.992;2023-02-19T06:10:47;99707.91;;;-10.58;68.54
69247;BME280;56358;56.328;43.992;2023-02-19T06:12:51;99681.19;;;-10.72;68.22
69247;BME280;56358;56.328;43.992;2023-02-19T06:14:52;99708.72;;;-10.50;68.50
69247;BME280;56358;56.328;43.992;2023-02-19T06:16:53;99711.31;;;-10.47;68.13
69247;BME280;56358;56.328;43.992;2023-02-19T06:18:53;99632.06;;;-10.92;68.10
69247;BME280;56358;56.328;43.992;2023-02-19T06:21:00;99712.16;;;-10.48;67.84
69247;BME280;56358;56.328;43.992;2023-02-19T06:23:01;99713.09;;;-10.58;68.19
69247;BME280;56358;56.328;43.992;2023-02-19T06:25:02;99707.91;;;-10.61;68.53
69247;BME280;56358;56.328;43.992;2023-02-19T06:27:05;99704.47;;;-10.66;68.41
69247;BME280;56358;56.328;43.992;2023-02-19T06:29:05;99705.31;;;-10.56;68.56
69247;BME280;56358;56.328;43.992;2023-02-19T06:31:07;99705.31;;;-10.55;68.47
69247;BME280;56358;56.328;43.992;2023-02-19T06:33:08;99703.56;;;-10.50;68.38
69247;BME280;56358;56.328;43.992;2023-02-19T06:35:08;99701.78;;;-10.46;68.36
69247;BME280;56358;56.328;43.992;2023-02-19T06:37:09;99708.69;;;-10.45;68.32
69247;BME280;56358;56.328;43.992;2023-02-19T06:39:10;99697.47;;;-10.42;68.06
69247;BME280;56358;56.328;43.992;2023-02-19T06:41:11;99675.03;;;-10.42;68.38
69247;BME280;56358;56.328;43.992;2023-02-19T06:43:12;99682.75;;;-10.36;67.89
69247;BME280;56358;56.328;43.992;2023-02-19T06:45:13;99698.25;;;-10.30;68.04
69247;BME280;56358;56.328;43.992;2023-02-19T06:47:14;99687.84;;;-10.22;67.86
69247;BME280;56358;56.328;43.992;2023-02-19T06:49:15;99701.59;;;-10.14;67.78
69247;BME280;56358;56.328;43.992;2023-02-19T06:51:17;99650.78;;;-10.36;67.55
69247;BME280;56358;56.328;43.992;2023-02-19T06:53:19;99649.84;;;-10.31;67.15
69247;BME280;56358;56.328;43.992;2023-02-19T06:55:19;99691.19;;;-10.04;66.40
69247;BME280;56358;56.328;43.992;2023-02-19T06:57:20;99704.13;;;-10.04;65.82
69247;BME280;56358;56.328;43.992;2023-02-19T06:59:21;99684.28;;;-10.08;65.35
69247;BME280;56358;56.328;43.992;2023-02-19T07:01:22;99679.09;;;-10.10;65.79
69247;BME280;56358;56.328;43.992;2023-02-19T07:03:23;99672.22;;;-10.16;65.66
69247;BME280;56358;56.328;43.992;2023-02-19T07:05:25;99678.25;;;-10.11;65.59
69247;BME280;56358;56.328;43.992;2023-02-19T07:07:26;99680.84;;;-10.11;65.95
69247;BME280;56358;56.328;43.992;2023-02-19T07:09:27;99637.84;;;-10.36;65.75
69247;BME280;56358;56.328;43.992;2023-02-19T07:11:29;99687.75;;;-10.09;65.84
69247;BME280;56358;56.328;43.992;2023-02-19T07:13:31;99680.00;;;-10.16;66.30
69247;BME280;56358;56.328;43.992;2023-02-19T07:15:31;99685.25;;;-10.22;66.30
69247;BME280;56358;56.328;43.992;2023-02-19T07:17:33;99678.28;;;-10.15;66.81
69247;BME280;56358;56.328;43.992;2023-02-19T07:19:34;99661.09;;;-10.29;66.81
69247;BME280;56358;56.328;43.992;2023-02-19T07:21:34;99648.13;;;-10.32;66.40
69247;BME280;56358;56.328;43.992;2023-02-19T07:23:37;99682.56;;;-10.11;66.46
69247;BME280;56358;56.328;43.992;2023-02-19T07:25:38;99678.22;;;-10.09;66.41
69247;BME280;56358;56.328;43.992;2023-02-19T07:27:39;99681.75;;;-10.18;66.56
69247;BME280;56358;56.328;43.992;2023-02-19T07:29:39;99677.41;;;-10.17;66.68
69247;BME280;56358;56.328;43.992;2023-02-19T07:31:41;99651.53;;;-10.23;66.68
69247;BME280;56358;56.328;43.992;2023-02-19T07:33:42;99664.44;;;-10.11;66.46
69247;BME280;56358;56.328;43.992;2023-02-19T07:35:48;99671.22;;;-9.96;66.25
69247;BME280;56358;56.328;43.992;2023-02-19T07:37:48;99623.00;;;-10.23;66.09
69247;BME280;56358;56.328;43.992;2023-02-19T07:39:49;99664.28;;;-9.94;66.19
69247;BME280;56358;56.328;43.992;2023-02-19T07:41:50;99672.91;;;-9.90;66.24
69247;BME280;56358;56.328;43.992;2023-02-19T07:43:52;99669.47;;;-9.91;66.24
69247;BME280;56358;56.328;43.992;2023-02-19T07:45:53;99666.81;;;-9.85;66.47
69247;BME280;56358;56.328;43.992;2023-02-19T07:47:53;99653.81;;;-9.80;66.63
69247;BME280;56358;56.328;43.992;2023-02-19T07:49:54;99673.53;;;-9.61;65.92
69247;BME280;56358;56.328;43.992;2023-02-19T07:51:55;99670.06;;;-9.60;65.75
69247;BME280;56358;56.328;43.992;2023-02-19T07:53:56;99668.38;;;-9.64;66.12
69247;BME280;56358;56.328;43.992;2023-02-19T07:56:01;99669.16;;;-9.55;66.19
69247;BME280;56358;56.328;43.992;2023-02-19T07:58:02;99669.13;;;-9.52;65.82
69247;BME280;56358;56.328;43.992;2023-02-19T08:00:03;99671.66;;;-9.46;66.21
69247;BME280;56358;56.328;43.992;2023-02-19T08:02:23;99666.47;;;-9.46;66.26
69247;BME280;56358;56.328;43.992;2023-02-19T08:04:42;99608.75;;;-9.71;66.28
69247;BME280;56358;56.328;43.992;2023-02-19T08:06:45;99656.03;;;-9.38;66.46
69247;BME280;56358;56.328;43.992;2023-02-19T08:08:45;99649.00;;;-9.29;66.40
69247;BME280;56358;56.328;43.992;2023-02-19T08:10:46;99653.28;;;-9.24;66.58
69247;BME280;56358;56.328;43.992;2023-02-19T08:13:05;99651.47;;;-9.16;66.66
69247;BME280;56358;56.328;43.992;2023-02-19T08:15:24;99640.09;;;-9.04;66.34
69247;BME280;56358;56.328;43.992;2023-02-19T08:17:25;99593.56;;;-9.23;66.21
69247;BME280;56358;56.328;43.992;2023-02-19T08:19:26;99641.75;;;-8.97;66.19
69247;BME280;56358;56.328;43.992;2023-02-19T08:21:26;99632.13;;;-8.92;66.23
69247;BME280;56358;56.328;43.992;2023-02-19T08:23:27;99615.06;;;-9.12;66.31
69247;BME280;56358;56.328;43.992;2023-02-19T08:25:28;99635.69;;;-8.98;66.28
69247;BME280;56358;56.328;43.992;2023-02-19T08:27:29;99636.53;;;-8.96;66.24
69247;BME280;56358;56.328;43.992;2023-02-19T08:29:29;99595.28;;;-9.22;66.35
69247;BME280;56358;56.328;43.992;2023-02-19T08:31:31;99621.81;;;-8.97;66.71
69247;BME280;56358;56.328;43.992;2023-02-19T08:33:32;99633.81;;;-8.86;66.40
69247;BME280;56358;56.328;43.992;2023-02-19T08:35:34;99637.25;;;-8.84;66.41
69247;BME280;56358;56.328;43.992;2023-02-19T08:37:35;99643.22;;;-8.78;66.33
69247;BME280;56358;56.328;43.992;2023-02-19T08:39:36;99627.59;;;-8.73;66.46
69247;BME280;56358;56.328;43.992;2023-02-19T08:41:37;99639.53;;;-8.58;66.38
69247;BME280;56358;56.328;43.992;2023-02-19T08:43:38;99635.03;;;-8.47;65.97
69247;BME280;56358;56.328;43.992;2023-02-19T08:45:41;99640.00;;;-8.31;65.50
69247;BME280;56358;56.328;43.992;2023-02-19T08:47:42;99637.34;;;-8.28;65.17
69247;BME280;56358;56.328;43.992;2023-02-19T08:49:43;99631.19;;;-8.22;65.13
69247;BME280;56358;56.328;43.992;2023-02-19T08:51:43;99659.72;;;-8.18;65.01
69247;BME280;56358;56.328;43.992;2023-02-19T08:53:44;99626.69;;;-8.11;64.96
69247;BME280;56358;56.328;43.992;2023-02-19T08:55:45;99633.31;;;-7.90;64.75
69247;BME280;56358;56.328;43.992;2023-02-19T08:57:46;99603.59;;;-7.77;64.25
69247;BME280;56358;56.328;43.992;2023-02-19T08:59:47;99548.44;;;-7.99;63.37
69247;BME280;56358;56.328;43.992;2023-02-19T09:01:47;99579.22;;;-7.72;63.26
69247;BME280;56358;56.328;43.992;2023-02-19T09:03:48;99620.44;;;-7.48;63.49
69247;BME280;56358;56.328;43.992;2023-02-19T09:05:49;99610.03;;;-7.49;63.00
69247;BME280;56358;56.328;43.992;2023-02-19T09:07:49;99617.50;;;-7.29;63.13
69247;BME280;56358;56.328;43.992;2023-02-19T09:09:50;99570.81;;;-7.40;62.88
69247;BME280;56358;56.328;43.992;2023-02-19T09:11:51;99601.53;;;-7.12;62.28
69247;BME280;56358;56.328;43.992;2023-02-19T09:13:55;99609.38;;;-7.12;62.12
69247;BME280;56358;56.328;43.992;2023-02-19T09:15:55;99610.28;;;-7.15;62.68
69247;BME280;56358;56.328;43.992;2023-02-19T09:17:56;99610.34;;;-7.19;62.34
69247;BME280;56358;56.328;43.992;2023-02-19T09:19:57;99563.06;;;-7.43;62.67
69247;BME280;56358;56.328;43.992;2023-02-19T09:21:58;99593.06;;;-7.24;62.83
69247;BME280;56358;56.328;43.992;2023-02-19T09:23:58;99564.03;;;-7.49;62.98
69247;BME280;56358;56.328;43.992;2023-02-19T09:25:59;99606.69;;;-7.09;62.63
69247;BME280;56358;56.328;43.992;2023-02-19T09:28:00;99611.38;;;-6.83;62.54
69247;BME280;56358;56.328;43.992;2023-02-19T09:30:01;99605.88;;;-6.69;61.75
69247;BME280;56358;56.328;43.992;2023-02-19T09:32:05;99605.72;;;-6.61;61.13
69247;BME280;56358;56.328;43.992;2023-02-19T09:34:06;99607.00;;;-6.40;61.20
69247;BME280;56358;56.328;43.992;2023-02-19T09:36:07;99603.72;;;-6.12;60.92
69247;BME280;56358;56.328;43.992;2023-02-19T09:38:08;99597.47;;;-6.05;60.09
69247;BME280;56358;56.328;43.992;2023-02-19T09:40:10;99602.41;;;-5.94;59.83
69247;BME280;56358;56.328;43.992;2023-02-19T09:42:19;99581.41;;;-5.90;59.42
69247;BME280;56358;56.328;43.992;2023-02-19T09:44:31;99584.94;;;-5.92;58.95
69247;BME280;56358;56.328;43.992;2023-02-19T09:46:42;99595.72;;;-6.04;59.31
69247;BME280;56358;56.328;43.992;2023-02-19T09:48:43;99589.31;;;-5.93;59.33
69247;BME280;56358;56.328;43.992;2023-02-19T09:50:47;99596.25;;;-5.92;58.95
69247;BME280;56358;56.328;43.992;2023-02-19T09:52:54;99593.28;;;-5.78;59.28
69247;BME280;56358;56.328;43.992;2023-02-19T09:55:22;99516.19;;;-6.26;58.92
69247;BME280;56358;56.328;43.992;2023-02-19T09:57:20;99553.53;;;-5.87;58.74
69247;BME280;56358;56.328;43.992;2023-02-19T09:59:28;99578.78;;;-5.55;58.55
69247;BME280;56358;56.328;43.992;2023-02-19T10:01:33;99542.56;;;-5.67;57.71
69247;BME280;56358;56.328;43.992;2023-02-19T10:03:38;99569.47;;;-5.32;57.70
69247;BME280;56358;56.328;43.992;2023-02-19T10:05:41;99548.19;;;-5.50;57.21
69247;BME280;56358;56.328;43.992;2023-02-19T10:07:48;99584.84;;;-5.53;57.28
69247;BME280;56358;56.328;43.992;2023-02-19T10:09:59;99563.53;;;-5.70;57.52
69247;BME280;56358;56.328;43.992;2023-02-19T10:12:01;99561.81;;;-5.72;57.64
69247;BME280;56358;56.328;43.992;2023-02-19T10:14:06;99560.78;;;-5.66;57.80
69247;BME280;56358;56.328;43.992;2023-02-19T10:16:14;99557.81;;;-5.52;58.10
69247;BME280;56358;56.328;43.992;2023-02-19T10:18:19;99558.81;;;-5.58;57.49
69247;BME280;56358;56.328;43.992;2023-02-19T10:20:23;99567.66;;;-5.62;57.45
69247;BME280;56358;56.328;43.992;2023-02-19T10:22:26;99524.81;;;-5.87;57.83
69247;BME280;56358;56.328;43.992;2023-02-19T10:24:28;99562.84;;;-5.79;58.46
69247;BME280;56358;56.328;43.992;2023-02-19T10:26:29;99564.44;;;-6.06;58.33
69247;BME280;56358;56.328;43.992;2023-02-19T10:28:35;99568.16;;;-6.16;58.74
69247;BME280;56358;56.328;43.992;2023-02-19T10:30:35;99572.16;;;-6.39;59.27
69247;BME280;56358;56.328;43.992;2023-02-19T10:32:36;99570.72;;;-6.51;59.46
69247;BME280;56358;56.328;43.992;2023-02-19T10:34:41;99571.81;;;-6.61;60.57
69247;BME280;56358;56.328;43.992;2023-02-19T10:36:42;99535.81;;;-6.83;60.45
69247;BME280;56358;56.328;43.992;2023-02-19T10:38:45;99563.91;;;-6.58;60.50
69247;BME280;56358;56.328;43.992;2023-02-19T10:40:47;99567.25;;;-6.51;60.33
69247;BME280;56358;56.328;43.992;2023-02-19T10:42:49;99548.84;;;-6.45;59.99
69247;BME280;56358;56.328;43.992;2023-02-19T10:44:57;99548.69;;;-6.37;60.56
69247;BME280;56358;56.328;43.992;2023-02-19T10:47:01;99544.09;;;-6.28;60.25
69247;BME280;56358;56.328;43.992;2023-02-19T10:49:21;99549.03;;;-5.82;58.91
69247;BME280;56358;56.328;43.992;2023-02-19T10:51:38;99520.34;;;-5.51;57.70
69247;BME280;56358;56.328;43.992;2023-02-19T10:53:49;99537.38;;;-5.38;57.19
69247;BME280;56358;56.328;43.992;2023-02-19T10:56:06;99540.38;;;-5.20;56.42
69247;BME280;56358;56.328;43.992;2023-02-19T10:58:22;99528.28;;;-4.93;56.41
69247;BME280;56358;56.328;43.992;2023-02-19T11:00:33;99527.19;;;-4.85;55.89
69247;BME280;56358;56.328;43.992;2023-02-19T11:02:34;99506.44;;;-4.62;55.06
69247;BME280;56358;56.328;43.992;2023-02-19T11:04:35;99515.69;;;-4.25;54.08